sensor_id;sensor_type;location;lat;lon;timestamp;temperature;humidity
35563;DHT22;21665;40.108;18.302;2023-06-22T00:00:57;23.40;99.90
35563;DHT22;21665;40.108;18.302;2023-06-22T00:03:24;23.40;99.90
35563;DHT22;21665;40.108;18.302;2023-06-22T00:05:52;23.40;99.90
35563;DHT22;21665;40.108;18.302;2023-06-22T00:08:19;23.40;99.90
35563;DHT22;21665;40.108;18.302;2023-06-22T00:10:46;23.40;99.90
35563;DHT22;21665;40.108;18.302;2023-06-22T00:13:13;23.40;99.90
35563;DHT22;21665;40.108;18.302;2023-06-22T00:15:40;23.40;99.90
35563;DHT22;21665;40.108;18.302;2023-06-22T00:18:08;23.40;99.90
35563;DHT22;21665;40.108;18.302;2023-06-22T00:20:36;23.50;99.90
35563;DHT22;21665;40.108;18.302;2023-06-22T00:23:07;23.40;99.90
35563;DHT22;21665;40.108;18.302;2023-06-22T00:25:40;23.40;99.90
35563;DHT22;21665;40.108;18.302;2023-06-22T00:28:07;23.40;99.90
35563;DHT22;21665;40.108;18.302;2023-06-22T00:30:35;23.40;99.90
35563;DHT22;21665;40.108;18.302;2023-06-22T00:33:02;23.40;99.90
35563;DHT22;21665;40.108;18.302;2023-06-22T00:35:29;23.40;99.90
35563;DHT22;21665;40.108;18.302;2023-06-22T00:37:56;23.50;99.90
35563;DHT22;21665;40.108;18.302;2023-06-22T00:40:31;23.40;99.90
35563;DHT22;21665;40.108;18.302;2023-06-22T00:42:58;23.50;99.90
35563;DHT22;21665;40.108;18.302;2023-06-22T00:45:26;23.40;99.90
35563;DHT22;21665;40.108;18.302;2023-06-22T00:47:55;23.40;99.90
35563;DHT22;21665;40.108;18.302;2023-06-22T00:50:24;23.40;99.90
35563;DHT22;21665;40.108;18.302;2023-06-22T00:52:54;23.40;99.90
35563;DHT22;21665;40.108;18.302;2023-06-22T00:55:23;23.40;99.90
35563;DHT22;21665;40.108;18.302;2023-06-22T00:57:50;23.30;99.90
35563;DHT22;21665;40.108;18.302;2023-06-22T01:00:16;23.30;99.90
35563;DHT22;21665;40.108;18.302;2023-06-22T01:02:46;23.30;99.90
35563;DHT22;21665;40.108;18.302;2023-06-22T01:05:14;23.30;99.90
35563;DHT22;21665;40.108;18.302;2023-06-22T01:10:41;23.20;99.90
35563;DHT22;21665;40.108;18.302;2023-06-22T01:13:35;23.20;99.90
35563;DHT22;21665;40.108;18.302;2023-06-22T01:16:24;23.10;99.90
35563;DHT22;21665;40.108;18.302;2023-06-22T01:18:55;23.00;99.90
35563;DHT22;21665;40.108;18.302;2023-06-22T01:21:38;22.90;99.90
35563;DHT22;21665;40.108;18.302;2023-06-22T01:24:22;22.80;99.90
35563;DHT22;21665;40.108;18.302;2023-06-22T01:27:05;22.80;99.90
35563;DHT22;21665;40.108;18.302;2023-06-22T01:29:37;22.70;99.90
35563;DHT22;21665;40.108;18.302;2023-06-22T01:32:06;22.60;99.90
35563;DHT22;21665;40.108;18.302;2023-06-22T01:34:35;22.60;99.90
35563;DHT22;21665;40.108;18.302;2023-06-22T01:37:03;22.60;99.90
35563;DHT22;21665;40.108;18.302;2023-06-22T01:39:30;22.50;99.90
35563;DHT22;21665;40.108;18.302;2023-06-22T01:41:58;22.50;99.90
35563;DHT22;21665;40.108;18.302;2023-06-22T01:44:26;22.40;99.90
35563;DHT22;21665;40.108;18.302;2023-06-22T01:46:52;22.40;99.90
35563;DHT22;21665;40.108;18.302;2023-06-22T01:49:19;22.40;99.90
35563;DHT22;21665;40.108;18.302;2023-06-22T01:51:46;22.30;99.90
35563;DHT22;21665;40.108;18.302;2023-06-22T01:54:12;22.30;99.90
35563;DHT22;21665;40.108;18.302;2023-06-22T01:56:39;22.30;99.90
35563;DHT22;21665;40.108;18.302;2023-06-22T01:59:14;22.30;99.90
35563;DHT22;21665;40.108;18.302;2023-06-22T02:02:09;22.30;99.90
35563;DHT22;21665;40.108;18.302;2023-06-22T02:04:44;22.30;99.90
35563;DHT22;21665;40.108;18.302;2023-06-22T02:07:15;22.30;99.90
35563;DHT22;21665;40.108;18.302;2023-06-22T02:09:45;22.30;99.90
35563;DHT22;21665;40.108;18.302;2023-06-22T02:12:15;22.40;99.90
35563;DHT22;21665;40.108;18.302;2023-06-22T02:14:43;22.40;99.90
35563;DHT22;21665;40.108;18.302;2023-06-22T02:17:10;22.50;99.90
35563;DHT22;21665;40.108;18.302;2023-06-22T02:19:37;22.50;99.90
35563;DHT22;21665;40.108;18.302;2023-06-22T02:22:05;22.40;99.90
35563;DHT22;21665;40.108;18.302;2023-06-22T02:24:31;22.40;99.90
35563;DHT22;21665;40.108;18.302;2023-06-22T02:27:01;22.50;99.90
35563;DHT22;21665;40.108;18.302;2023-06-22T02:29:28;22.50;99.90
35563;DHT22;21665;40.108;18.302;2023-06-22T02:31:55;22.60;99.90
35563;DHT22;21665;40.108;18.302;2023-06-22T02:34:22;22.60;99.90
35563;DHT22;21665;40.108;18.302;2023-06-22T02:36:51;22.60;99.90
35563;DHT22;21665;40.108;18.302;2023-06-22T02:39:23;22.60;99.90
35563;DHT22;21665;40.108;18.302;2023-06-22T02:41:51;22.70;99.90
35563;DHT22;21665;40.108;18.302;2023-06-22T02:44:18;22.70;99.90
35563;DHT22;21665;40.108;18.302;2023-06-22T02:46:45;22.80;99.90
35563;DHT22;21665;40.108;18.302;2023-06-22T02:49:14;22.80;99.90
35563;DHT22;21665;40.108;18.302;2023-06-22T02:51:45;22.80;99.90
35563;DHT22;21665;40.108;18.302;2023-06-22T02:54:13;22.80;99.90
35563;DHT22;21665;40.108;18.302;2023-06-22T02:56:40;22.80;99.90
35563;DHT22;21665;40.108;18.302;2023-06-22T02:59:10;22.80;99.90
35563;DHT22;21665;40.108;18.302;2023-06-22T03:01:38;22.80;99.90
35563;DHT22;21665;40.108;18.302;2023-06-22T03:04:13;22.70;99.90
35563;DHT22;21665;40.108;18.302;2023-06-22T03:06:40;22.70;99.90
35563;DHT22;21665;40.108;18.302;2023-06-22T03:09:08;22.70;99.90
35563;DHT22;21665;40.108;18.302;2023-06-22T03:11:36;22.70;99.90
35563;DHT22;21665;40.108;18.302;2023-06-22T03:14:03;22.60;99.90
35563;DHT22;21665;40.108;18.302;2023-06-22T03:16:29;22.60;99.90
35563;DHT22;21665;40.108;18.302;2023-06-22T03:18:57;22.50;99.90
35563;DHT22;21665;40.108;18.302;2023-06-22T03:21:28;22.50;99.90
35563;DHT22;21665;40.108;18.302;2023-06-22T03:23:55;22.50;99.90
35563;DHT22;21665;40.108;18.302;2023-06-22T03:26:24;22.50;99.90
35563;DHT22;21665;40.108;18.302;2023-06-22T03:29:03;22.40;99.90
35563;DHT22;21665;40.108;18.302;2023-06-22T03:31:31;22.40;99.90
35563;DHT22;21665;40.108;18.302;2023-06-22T03:33:57;22.50;99.90
35563;DHT22;21665;40.108;18.302;2023-06-22T03:38:59;22.50;99.90
35563;DHT22;21665;40.108;18.302;2023-06-22T03:41:31;22.50;99.90
35563;DHT22;21665;40.108;18.302;2023-06-22T03:44:04;22.50;99.90
35563;DHT22;21665;40.108;18.302;2023-06-22T03:52:47;22.70;99.90
35563;DHT22;21665;40.108;18.302;2023-06-22T03:55:47;22.70;99.90
35563;DHT22;21665;40.108;18.302;2023-06-22T03:58:26;22.80;99.90
35563;DHT22;21665;40.108;18.302;2023-06-22T04:01:19;22.90;99.90
35563;DHT22;21665;40.108;18.302;2023-06-22T04:07:08;23.30;99.90
35563;DHT22;21665;40.108;18.302;2023-06-22T04:09:35;23.40;99.90
35563;DHT22;21665;40.108;18.302;2023-06-22T04:12:02;23.60;99.90
35563;DHT22;21665;40.108;18.302;2023-06-22T04:14:28;23.70;99.90
35563;DHT22;21665;40.108;18.302;2023-06-22T04:16:54;23.70;99.90
35563;DHT22;21665;40.108;18.302;2023-06-22T04:19:27;23.90;99.90
35563;DHT22;21665;40.108;18.302;2023-06-22T04:21:53;24.00;99.90
35563;DHT22;21665;40.108;18.302;2023-06-22T04:24:23;24.20;99.90
35563;DHT22;21665;40.108;18.302;2023-06-22T04:26:49;24.40;99.90
35563;DHT22;21665;40.108;18.302;2023-06-22T04:29:24;24.60;99.90
35563;DHT22;21665;40.108;18.302;2023-06-22T04:31:54;24.50;99.90
35563;DHT22;21665;40.108;18.302;2023-06-22T04:34:22;24.60;99.90
35563;DHT22;21665;40.108;18.302;2023-06-22T04:36:52;24.70;99.90
35563;DHT22;21665;40.108;18.302;2023-06-22T04:39:21;24.90;99.90
35563;DHT22;21665;40.108;18.302;2023-06-22T04:41:48;25.30;99.90
35563;DHT22;21665;40.108;18.302;2023-06-22T04:44:19;25.80;99.90
35563;DHT22;21665;40.108;18.302;2023-06-22T04:46:51;26.30;99.90
35563;DHT22;21665;40.108;18.302;2023-06-22T04:49:26;26.80;99.90
35563;DHT22;21665;40.108;18.302;2023-06-22T04:52:00;27.50;99.90
35563;DHT22;21665;40.108;18.302;2023-06-22T04:54:27;27.60;99.90
35563;DHT22;21665;40.108;18.302;2023-06-22T04:56:56;27.90;99.90
35563;DHT22;21665;40.108;18.302;2023-06-22T04:59:23;28.00;99.90
35563;DHT22;21665;40.108;18.302;2023-06-22T05:01:59;28.10;99.90
35563;DHT22;21665;40.108;18.302;2023-06-22T05:04:27;28.50;99.90
35563;DHT22;21665;40.108;18.302;2023-06-22T05:07:04;28.50;99.90
35563;DHT22;21665;40.108;18.302;2023-06-22T05:09:31;28.70;99.90
35563;DHT22;21665;40.108;18.302;2023-06-22T05:12:02;28.80;99.90
35563;DHT22;21665;40.108;18.302;2023-06-22T05:14:29;29.30;99.90
35563;DHT22;21665;40.108;18.302;2023-06-22T05:16:56;29.50;99.90
35563;DHT22;21665;40.108;18.302;2023-06-22T05:19:25;29.10;99.90
35563;DHT22;21665;40.108;18.302;2023-06-22T05:22:03;29.00;99.90
35563;DHT22;21665;40.108;18.302;2023-06-22T05:24:35;29.50;99.90
35563;DHT22;21665;40.108;18.302;2023-06-22T05:27:02;29.90;99.90
35563;DHT22;21665;40.108;18.302;2023-06-22T05:29:39;30.00;99.90
35563;DHT22;21665;40.108;18.302;2023-06-22T05:32:24;30.40;99.90
35563;DHT22;21665;40.108;18.302;2023-06-22T05:34:53;30.70;99.90
35563;DHT22;21665;40.108;18.302;2023-06-22T05:37:22;30.60;99.90
35563;DHT22;21665;40.108;18.302;2023-06-22T05:39:49;30.90;99.90
35563;DHT22;21665;40.108;18.302;2023-06-22T05:42:23;31.10;99.90
35563;DHT22;21665;40.108;18.302;2023-06-22T05:45:13;31.40;99.90
35563;DHT22;21665;40.108;18.302;2023-06-22T05:47:42;31.70;99.90
35563;DHT22;21665;40.108;18.302;2023-06-22T05:50:13;31.70;99.90
35563;DHT22;21665;40.108;18.302;2023-06-22T05:52:42;31.40;99.90
35563;DHT22;21665;40.108;18.302;2023-06-22T05:55:09;31.40;99.90
35563;DHT22;21665;40.108;18.302;2023-06-22T05:57:45;32.30;99.90
35563;DHT22;21665;40.108;18.302;2023-06-22T06:00:12;32.50;99.90
35563;DHT22;21665;40.108;18.302;2023-06-22T06:02:48;32.40;99.90
35563;DHT22;21665;40.108;18.302;2023-06-22T06:05:24;32.60;99.90
35563;DHT22;21665;40.108;18.302;2023-06-22T06:07:54;32.80;99.90
35563;DHT22;21665;40.108;18.302;2023-06-22T06:10:22;33.10;99.90
35563;DHT22;21665;40.108;18.302;2023-06-22T06:12:49;32.80;99.90
35563;DHT22;21665;40.108;18.302;2023-06-22T06:15:15;32.70;99.90
35563;DHT22;21665;40.108;18.302;2023-06-22T06:17:49;32.50;99.90
35563;DHT22;21665;40.108;18.302;2023-06-22T06:20:18;32.80;99.90
35563;DHT22;21665;40.108;18.302;2023-06-22T06:22:44;33.10;99.90
35563;DHT22;21665;40.108;18.302;2023-06-22T06:25:11;33.40;99.90
35563;DHT22;21665;40.108;18.302;2023-06-22T06:27:43;33.60;99.90
35563;DHT22;21665;40.108;18.302;2023-06-22T06:30:11;34.20;99.90
35563;DHT22;21665;40.108;18.302;2023-06-22T06:32:38;34.40;99.90
35563;DHT22;21665;40.108;18.302;2023-06-22T06:35:09;34.30;99.90
35563;DHT22;21665;40.108;18.302;2023-06-22T06:37:37;33.80;99.90
35563;DHT22;21665;40.108;18.302;2023-06-22T06:40:05;33.70;99.90
35563;DHT22;21665;40.108;18.302;2023-06-22T06:42:34;34.00;99.90
35563;DHT22;21665;40.108;18.302;2023-06-22T06:45:01;34.10;99.90
35563;DHT22;21665;40.108;18.302;2023-06-22T06:47:27;33.90;99.90
35563;DHT22;21665;40.108;18.302;2023-06-22T06:49:53;33.60;99.90
35563;DHT22;21665;40.108;18.302;2023-06-22T06:52:19;33.30;99.90
35563;DHT22;21665;40.108;18.302;2023-06-22T06:54:46;33.70;99.90
35563;DHT22;21665;40.108;18.302;2023-06-22T06:57:12;33.90;99.90
35563;DHT22;21665;40.108;18.302;2023-06-22T06:59:39;34.00;99.90
35563;DHT22;21665;40.108;18.302;2023-06-22T07:02:05;34.40;99.90
35563;DHT22;21665;40.108;18.302;2023-06-22T07:04:31;34.30;99.90
35563;DHT22;21665;40.108;18.302;2023-06-22T07:07:00;34.00;99.90
35563;DHT22;21665;40.108;18.302;2023-06-22T07:09:27;33.90;99.90
35563;DHT22;21665;40.108;18.302;2023-06-22T07:11:54;33.50;99.90
35563;DHT22;21665;40.108;18.302;2023-06-22T07:14:20;33.70;99.90
35563;DHT22;21665;40.108;18.302;2023-06-22T07:16:47;33.50;99.90
35563;DHT22;21665;40.108;18.302;2023-06-22T07:19:13;33.60;99.90
35563;DHT22;21665;40.108;18.302;2023-06-22T07:21:39;33.70;99.90
35563;DHT22;21665;40.108;18.302;2023-06-22T07:24:06;33.40;99.90
35563;DHT22;21665;40.108;18.302;2023-06-22T07:26:33;33.50;99.90
35563;DHT22;21665;40.108;18.302;2023-06-22T07:29:00;33.60;99.90
35563;DHT22;21665;40.108;18.302;2023-06-22T07:31:26;34.30;99.90
35563;DHT22;21665;40.108;18.302;2023-06-22T07:33:53;35.00;99.90
35563;DHT22;21665;40.108;18.302;2023-06-22T07:36:19;35.20;99.90
35563;DHT22;21665;40.108;18.302;2023-06-22T07:38:45;35.10;99.90
35563;DHT22;21665;40.108;18.302;2023-06-22T07:41:12;35.00;99.90
35563;DHT22;21665;40.108;18.302;2023-06-22T07:43:38;34.70;99.90
35563;DHT22;21665;40.108;18.302;2023-06-22T07:46:05;34.30;99.90
35563;DHT22;21665;40.108;18.302;2023-06-22T07:48:32;34.10;99.90
35563;DHT22;21665;40.108;18.302;2023-06-22T07:50:58;34.00;99.90
35563;DHT22;21665;40.108;18.302;2023-06-22T07:53:24;33.90;99.90
35563;DHT22;21665;40.108;18.302;2023-06-22T07:55:50;34.50;99.90
35563;DHT22;21665;40.108;18.302;2023-06-22T07:58:17;34.70;99.90
35563;DHT22;21665;40.108;18.302;2023-06-22T08:00:45;34.50;99.90
35563;DHT22;21665;40.108;18.302;2023-06-22T08:03:11;34.30;99.90
35563;DHT22;21665;40.108;18.302;2023-06-22T08:05:38;34.30;99.90
35563;DHT22;21665;40.108;18.302;2023-06-22T08:08:06;34.40;99.90
35563;DHT22;21665;40.108;18.302;2023-06-22T08:10:32;34.60;99.90
35563;DHT22;21665;40.108;18.302;2023-06-22T08:12:58;34.50;99.90
35563;DHT22;21665;40.108;18.302;2023-06-22T08:15:26;34.50;99.90
35563;DHT22;21665;40.108;18.302;2023-06-22T08:17:53;34.80;99.90
35563;DHT22;21665;40.108;18.302;2023-06-22T08:20:20;34.70;99.90
35563;DHT22;21665;40.108;18.302;2023-06-22T08:22:46;34.50;99.90
35563;DHT22;21665;40.108;18.302;2023-06-22T08:25:13;34.00;99.90
35563;DHT22;21665;40.108;18.302;2023-06-22T08:27:39;34.60;99.90
35563;DHT22;21665;40.108;18.302;2023-06-22T08:30:07;34.70;99.90
35563;DHT22;21665;40.108;18.302;2023-06-22T08:32:33;35.10;99.90
35563;DHT22;21665;40.108;18.302;2023-06-22T08:34:59;35.00;99.90
35563;DHT22;21665;40.108;18.302;2023-06-22T08:37:26;35.40;99.90
35563;DHT22;21665;40.108;18.302;2023-06-22T08:40:00;35.30;99.90
35563;DHT22;21665;40.108;18.302;2023-06-22T08:42:35;35.50;99.90
35563;DHT22;21665;40.108;18.302;2023-06-22T08:45:01;35.40;99.90
35563;DHT22;21665;40.108;18.302;2023-06-22T08:47:28;35.10;99.90
35563;DHT22;21665;40.108;18.302;2023-06-22T08:49:55;34.40;99.90
35563;DHT22;21665;40.108;18.302;2023-06-22T08:52:22;34.30;99.90
35563;DHT22;21665;40.108;18.302;2023-06-22T08:54:49;34.80;99.90
35563;DHT22;21665;40.108;18.302;2023-06-22T08:57:15;35.20;99.90
35563;DHT22;21665;40.108;18.302;2023-06-22T08:59:42;35.40;99.90
35563;DHT22;21665;40.108;18.302;2023-06-22T09:02:08;35.90;99.90
35563;DHT22;21665;40.108;18.302;2023-06-22T09:04:35;35.90;99.90
35563;DHT22;21665;40.108;18.302;2023-06-22T09:07:01;36.10;99.90
35563;DHT22;21665;40.108;18.302;2023-06-22T09:09:28;35.90;99.90
35563;DHT22;21665;40.108;18.302;2023-06-22T09:11:55;35.70;99.90
35563;DHT22;21665;40.108;18.302;2023-06-22T09:14:21;35.80;99.90
35563;DHT22;21665;40.108;18.302;2023-06-22T09:16:48;35.40;99.90
35563;DHT22;21665;40.108;18.302;2023-06-22T09:19:14;35.20;99.90
35563;DHT22;21665;40.108;18.302;2023-06-22T09:21:40;35.20;99.90
35563;DHT22;21665;40.108;18.302;2023-06-22T09:24:07;35.00;99.90
35563;DHT22;21665;40.108;18.302;2023-06-22T09:26:34;35.10;99.90
35563;DHT22;21665;40.108;18.302;2023-06-22T09:29:00;35.20;99.90
35563;DHT22;21665;40.108;18.302;2023-06-22T09:31:26;35.20;99.90
35563;DHT22;21665;40.108;18.302;2023-06-22T09:33:53;35.10;99.90
35563;DHT22;21665;40.108;18.302;2023-06-22T09:36:21;35.20;99.90
35563;DHT22;21665;40.108;18.302;2023-06-22T09:38:48;35.30;99.90
35563;DHT22;21665;40.108;18.302;2023-06-22T09:41:21;35.60;99.90
35563;DHT22;21665;40.108;18.302;2023-06-22T09:43:48;35.90;99.90
35563;DHT22;21665;40.108;18.302;2023-06-22T09:46:17;36.10;99.90
35563;DHT22;21665;40.108;18.302;2023-06-22T09:48:44;35.60;99.90
35563;DHT22;21665;40.108;18.302;2023-06-22T09:51:11;34.90;99.90
35563;DHT22;21665;40.108;18.302;2023-06-22T09:53:37;34.80;99.90
35563;DHT22;21665;40.108;18.302;2023-06-22T09:56:04;34.60;99.90
35563;DHT22;21665;40.108;18.302;2023-06-22T09:58:35;34.30;99.90
35563;DHT22;21665;40.108;18.302;2023-06-22T10:01:02;34.40;99.90
35563;DHT22;21665;40.108;18.302;2023-06-22T10:03:28;34.30;99.90
35563;DHT22;21665;40.108;18.302;2023-06-22T10:05:54;34.30;99.90
35563;DHT22;21665;40.108;18.302;2023-06-22T10:08:21;34.60;99.90
35563;DHT22;21665;40.108;18.302;2023-06-22T10:10:47;34.10;99.90
35563;DHT22;21665;40.108;18.302;2023-06-22T10:13:13;34.10;99.90
35563;DHT22;21665;40.108;18.302;2023-06-22T10:15:42;33.90;99.90
35563;DHT22;21665;40.108;18.302;2023-06-22T10:18:08;34.00;99.90
35563;DHT22;21665;40.108;18.302;2023-06-22T10:20:35;34.00;99.90
35563;DHT22;21665;40.108;18.302;2023-06-22T10:23:02;34.00;99.90
35563;DHT22;21665;40.108;18.302;2023-06-22T10:25:28;33.70;99.90
35563;DHT22;21665;40.108;18.302;2023-06-22T10:27:54;33.60;99.90
35563;DHT22;21665;40.108;18.302;2023-06-22T10:30:21;33.60;99.90
35563;DHT22;21665;40.108;18.302;2023-06-22T10:32:47;33.70;99.90
35563;DHT22;21665;40.108;18.302;2023-06-22T10:35:14;33.90;99.90
35563;DHT22;21665;40.108;18.302;2023-06-22T10:37:45;33.80;99.90
35563;DHT22;21665;40.108;18.302;2023-06-22T10:40:16;33.70;99.90
35563;DHT22;21665;40.108;18.302;2023-06-22T10:42:43;34.00;99.90
35563;DHT22;21665;40.108;18.302;2023-06-22T10:45:09;34.00;99.90
35563;DHT22;21665;40.108;18.302;2023-06-22T10:47:36;34.00;99.90
35563;DHT22;21665;40.108;18.302;2023-06-22T10:50:03;34.10;99.90
35563;DHT22;21665;40.108;18.302;2023-06-22T10:52:32;34.10;99.90
35563;DHT22;21665;40.108;18.302;2023-06-22T10:54:59;34.00;99.90
35563;DHT22;21665;40.108;18.302;2023-06-22T10:57:25;34.00;99.90
35563;DHT22;21665;40.108;18.302;2023-06-22T10:59:52;33.90;99.90
35563;DHT22;21665;40.108;18.302;2023-06-22T11:02:18;34.00;99.90
35563;DHT22;21665;40.108;18.302;2023-06-22T11:04:44;34.00;99.90
35563;DHT22;21665;40.108;18.302;2023-06-22T11:07:11;34.20;99.90
35563;DHT22;21665;40.108;18.302;2023-06-22T11:09:38;34.30;99.90
35563;DHT22;21665;40.108;18.302;2023-06-22T11:12:06;34.20;99.90
35563;DHT22;21665;40.108;18.302;2023-06-22T11:17:26;33.90;99.90
35563;DHT22;21665;40.108;18.302;2023-06-22T11:22:58;34.00;99.90
35563;DHT22;21665;40.108;18.302;2023-06-22T11:25:30;34.10;99.90
35563;DHT22;21665;40.108;18.302;2023-06-22T11:27:59;34.00;99.90
35563;DHT22;21665;40.108;18.302;2023-06-22T11:30:29;34.10;99.90
35563;DHT22;21665;40.108;18.302;2023-06-22T11:32:58;33.90;99.90
35563;DHT22;21665;40.108;18.302;2023-06-22T11:35:25;34.00;99.90
35563;DHT22;21665;40.108;18.302;2023-06-22T11:37:52;33.80;99.90
35563;DHT22;21665;40.108;18.302;2023-06-22T11:40:18;34.00;99.90
35563;DHT22;21665;40.108;18.302;2023-06-22T11:42:45;33.90;99.90
35563;DHT22;21665;40.108;18.302;2023-06-22T11:45:11;34.00;99.90
35563;DHT22;21665;40.108;18.302;2023-06-22T11:47:40;34.20;99.90
35563;DHT22;21665;40.108;18.302;2023-06-22T11:50:07;34.30;99.90
35563;DHT22;21665;40.108;18.302;2023-06-22T11:52:49;34.30;99.90
35563;DHT22;21665;40.108;18.302;2023-06-22T11:55:24;34.30;99.90
35563;DHT22;21665;40.108;18.302;2023-06-22T11:57:57;34.20;99.90
35563;DHT22;21665;40.108;18.302;2023-06-22T12:00:30;34.00;99.90
35563;DHT22;21665;40.108;18.302;2023-06-22T12:02:59;33.80;99.90
35563;DHT22;21665;40.108;18.302;2023-06-22T12:05:32;34.10;99.90
35563;DHT22;21665;40.108;18.302;2023-06-22T12:08:01;34.30;99.90
35563;DHT22;21665;40.108;18.302;2023-06-22T12:13:02;34.10;99.90
35563;DHT22;21665;40.108;18.302;2023-06-22T12:15:35;33.90;99.90
35563;DHT22;21665;40.108;18.302;2023-06-22T12:18:01;34.00;99.90
35563;DHT22;21665;40.108;18.302;2023-06-22T12:20:48;33.90;99.90
35563;DHT22;21665;40.108;18.302;2023-06-22T12:36:38;34.10;99.90
35563;DHT22;21665;40.108;18.302;2023-06-22T12:39:04;33.70;99.90
35563;DHT22;21665;40.108;18.302;2023-06-22T12:41:31;33.40;99.90
35563;DHT22;21665;40.108;18.302;2023-06-22T12:43:58;33.70;99.90
35563;DHT22;21665;40.108;18.302;2023-06-22T12:46:24;33.70;99.90
35563;DHT22;21665;40.108;18.302;2023-06-22T12:48:50;33.50;99.90
35563;DHT22;21665;40.108;18.302;2023-06-22T12:58:08;33.40;99.90
35563;DHT22;21665;40.108;18.302;2023-06-22T15:16:54;32.90;99.90
35563;DHT22;21665;40.108;18.302;2023-06-22T15:25:48;33.00;99.90
35563;DHT22;21665;40.108;18.302;2023-06-22T15:38:04;32.60;99.90
35563;DHT22;21665;40.108;18.302;2023-06-22T16:04:45;32.10;99.90
35563;DHT22;21665;40.108;18.302;2023-06-22T17:04:37;30.30;99.90
35563;DHT22;21665;40.108;18.302;2023-06-22T17:45:27;29.00;99.90
35563;DHT22;21665;40.108;18.302;2023-06-22T21:04:07;25.40;99.90
35563;DHT22;21665;40.108;18.302;2023-06-22T21:06:38;25.40;99.90
35563;DHT22;21665;40.108;18.302;2023-06-22T21:09:05;25.30;99.90
35563;DHT22;21665;40.108;18.302;2023-06-22T21:11:32;25.30;99.90
35563;DHT22;21665;40.108;18.302;2023-06-22T21:14:01;25.30;99.90
35563;DHT22;21665;40.108;18.302;2023-06-22T21:16:28;25.20;99.90
35563;DHT22;21665;40.108;18.302;2023-06-22T21:18:54;25.20;99.90
35563;DHT22;21665;40.108;18.302;2023-06-22T21:21:22;25.20;99.90
35563;DHT22;21665;40.108;18.302;2023-06-22T21:23:48;25.30;99.90
35563;DHT22;21665;40.108;18.302;2023-06-22T21:26:14;25.30;99.90
35563;DHT22;21665;40.108;18.302;2023-06-22T21:28:41;25.20;99.90
35563;DHT22;21665;40.108;18.302;2023-06-22T21:31:08;25.10;99.90
35563;DHT22;21665;40.108;18.302;2023-06-22T21:33:36;25.20;99.90
35563;DHT22;21665;40.108;18.302;2023-06-22T21:36:03;25.20;99.90
35563;DHT22;21665;40.108;18.302;2023-06-22T21:38:29;25.20;99.90
35563;DHT22;21665;40.108;18.302;2023-06-22T21:41:00;25.10;99.90
35563;DHT22;21665;40.108;18.302;2023-06-22T21:43:50;25.10;99.90
35563;DHT22;21665;40.108;18.302;2023-06-22T21:46:20;25.10;99.90
35563;DHT22;21665;40.108;18.302;2023-06-22T21:48:50;25.10;99.90
35563;DHT22;21665;40.108;18.302;2023-06-22T21:51:19;25.00;99.90
35563;DHT22;21665;40.108;18.302;2023-06-22T21:53:46;25.00;99.90
35563;DHT22;21665;40.108;18.302;2023-06-22T22:57:01;24.20;99.90
35563;DHT22;21665;40.108;18.302;2023-06-22T22:59:28;24.20;99.90
35563;DHT22;21665;40.108;18.302;2023-06-22T23:01:54;24.20;99.90
